Ridgeville Corners, Ohio
Current Conditions -  °F | °C
As of 2:53 AM on Tuesday 21 Oct 2014 (Local Time) from KDFI Reporting Station
Few Clouds Few Clouds  
Wind Chill: 45°   Ceiling: Unl
Heat Index: 48°   Visibility: 10mi
Dew Point: 42°   Wind: 7mph
Humidity: 80%   Direction: 320°NW
Pressure: 29.92"   Gusts: NA
Location:  41.44°N, 84.26°W
Report Text: KDFI 210653Z AUTO 32006KT 10SM FEW070 09/06 A2992 RMK AO2 SLP135 T00890056
Loading
Personal Weather Stations






























Interactive Weather Map
Tropical Storm Tracking
New forecast layout! Learn more

10-Day Weather Forecast

Advertisements
Track Severe Weather on mobile